Time;durP1;ratioP1;P1;durP2;ratioP2;P2;SDS_P1;SDS_P2;PMS_P1;PMS_P2;Temp;Humidity;BMP_temperature;BMP_pressure;BME280_temperature;BME280_humidity;BME280_pressure;Samples;Min_cycle;Max_cycle;Signal;HPM_P1;HPM_P2
2022/02/25 00:00:36;;;;;;;67.90;35.90;;;;;;;1.90;100.00;100661.68;1778345;80;21045;-69
2022/02/25 00:03:06;;;;;;;63.02;32.03;;;;;;;1.90;100.00;100661.68;1778330;80;21013;-67
2022/02/25 00:05:33;;;;;;;99.67;43.85;;;;;;;1.91;100.00;100658.64;1778675;80;21037;-69
2022/02/25 00:08:02;;;;;;;74.45;34.58;;;;;;;1.88;100.00;100657.77;1778504;80;21026;-68
2022/02/25 00:10:29;;;;;;;57.75;28.35;;;;;;;1.89;100.00;100655.62;1778593;80;21107;-69
2022/02/25 00:12:57;;;;;;;59.23;30.30;;;;;;;1.89;100.00;100643.94;1778577;80;21692;-68
2022/02/25 00:15:26;;;;;;;54.75;28.98;;;;;;;1.90;100.00;100642.20;1778590;80;21084;-69
2022/02/25 00:17:54;;;;;;;95.07;38.58;;;;;;;1.85;100.00;100639.57;1778878;80;21013;-68
2022/02/25 00:20:21;;;;;;;75.92;33.70;;;;;;;1.85;100.00;100639.57;1778744;80;21073;-68
2022/02/25 00:22:49;;;;;;;59.85;30.23;;;;;;;1.86;100.00;100636.14;1750797;80;21112;-67
2022/02/25 00:25:17;;;;;;;66.70;31.73;;;;;;;1.86;100.00;100641.33;1778648;80;21037;-68
2022/02/25 00:27:44;;;;;;;66.37;33.42;;;;;;;1.87;100.00;100633.97;1778700;80;20998;-68
2022/02/25 00:30:13;;;;;;;67.10;34.27;;;;;;;1.86;100.00;100630.05;1778836;80;21016;-67
2022/02/25 00:32:41;;;;;;;68.52;32.53;;;;;;;1.84;100.00;100629.16;1778873;80;21069;-68
2022/02/25 00:35:09;;;;;;;64.75;30.17;;;;;;;1.82;100.00;100633.07;1778749;80;21123;-67
2022/02/25 00:37:38;;;;;;;67.20;33.33;;;;;;;1.81;100.00;100636.51;1779220;80;21069;-68
2022/02/25 00:40:09;;;;;;;70.10;31.82;;;;;;;1.75;100.00;100622.20;1779114;80;21014;-68
2022/02/25 00:42:38;;;;;;;61.77;30.50;;;;;;;1.74;100.00;100626.08;1753848;80;21057;-68
2022/02/25 00:45:08;;;;;;;58.63;30.30;;;;;;;1.70;100.00;100618.69;1779516;80;21264;-69
2022/02/25 00:47:37;;;;;;;60.28;29.75;;;;;;;1.72;100.00;100609.62;1779838;80;26721;-68
2022/02/25 00:50:08;;;;;;;56.23;30.02;;;;;;;1.71;100.00;100615.25;1779238;80;21279;-68
2022/02/25 00:52:38;;;;;;;57.00;28.35;;;;;;;1.66;100.00;100613.05;1779782;80;21573;-69
2022/02/25 00:55:08;;;;;;;57.43;28.42;;;;;;;1.68;100.00;100611.34;1779275;80;21124;-68
2022/02/25 00:57:48;;;;;;;63.92;31.12;;;;;;;1.65;100.00;100611.30;1779728;80;27680;-69
2022/02/25 01:00:16;;;;;;;61.33;31.17;;;;;;;1.65;100.00;100615.19;1779287;80;21171;-68
2022/02/25 01:02:43;;;;;;;51.80;28.20;;;;;;;1.65;100.00;100604.38;1779436;80;21146;-67
2022/02/25 01:05:10;;;;;;;59.85;30.20;;;;;;;1.67;100.00;100604.39;1779673;80;21025;-68
2022/02/25 01:07:40;;;;;;;62.50;30.15;;;;;;;1.67;100.00;100601.36;1779607;80;21025;-69
2022/02/25 01:10:09;;;;;;;56.88;27.42;;;;;;;1.64;100.00;100597.89;1779187;80;21529;-68
2022/02/25 01:12:36;;;;;;;67.78;33.60;;;;;;;1.63;100.00;100591.84;1779621;80;21120;-68
2022/02/25 01:15:05;;;;;;;54.38;27.52;;;;;;;1.66;100.00;100591.84;1779120;80;21169;-68
2022/02/25 01:17:32;;;;;;;55.05;28.45;;;;;;;1.67;100.00;100582.33;1779572;80;21549;-68
2022/02/25 01:19:59;;;;;;;50.43;22.37;;;;;;;1.64;100.00;100578.42;1779313;80;21589;-68
2022/02/25 01:22:26;;;;;;;61.95;28.57;;;;;;;1.62;100.00;100578.84;1779577;80;22196;-67
2022/02/25 01:24:54;;;;;;;51.13;26.17;;;;;;;1.60;100.00;100590.93;1779273;80;21549;-67
2022/02/25 01:27:21;;;;;;;58.92;25.97;;;;;;;1.58;100.00;100595.24;1779475;80;21106;-68
2022/02/25 01:29:48;;;;;;;58.33;27.15;;;;;;;1.58;100.00;100584.86;1779352;80;21033;-68
2022/02/25 01:32:14;;;;;;;50.35;26.30;;;;;;;1.55;100.00;100580.52;1779361;80;21089;-68
2022/02/25 01:34:41;;;;;;;53.13;24.23;;;;;;;1.55;100.00;100575.77;1779373;80;21357;-68
2022/02/25 01:37:08;;;;;;;47.75;24.25;;;;;;;1.54;100.00;100583.09;1778800;80;21049;-67
2022/02/25 01:39:35;;;;;;;54.35;26.68;;;;;;;1.57;100.00;100572.75;1778635;80;21132;-67
2022/02/25 01:42:06;;;;;;;46.40;20.55;;;;;;;1.53;100.00;100574.44;1778473;80;21053;-67
2022/02/25 01:44:32;;;;;;;49.60;25.25;;;;;;;1.52;100.00;100577.02;1778972;80;21533;-69
2022/02/25 01:47:01;;;;;;;53.25;24.87;;;;;;;1.51;100.00;100567.06;1778585;80;21049;-68
2022/02/25 01:49:28;;;;;;;49.73;24.57;;;;;;;1.50;100.00;100571.84;1778936;80;20974;-68
2022/02/25 01:52:04;;;;;;;47.43;22.62;;;;;;;1.51;100.00;100564.91;1778719;80;22010;-67
2022/02/25 01:54:31;;;;;;;40.28;22.55;;;;;;;1.51;100.00;100562.31;1764718;80;21046;-67
2022/02/25 01:56:58;;;;;;;47.65;23.10;;;;;;;1.48;100.00;100557.11;1784804;80;20991;-66
2022/02/25 01:59:26;;;;;;;44.33;24.32;;;;;;;1.46;100.00;100557.09;1754153;81;21680;-68
2022/02/25 02:01:53;;;;;;;41.37;22.02;;;;;;;1.46;100.00;100555.36;1784832;80;21541;-67
2022/02/25 02:04:20;;;;;;;47.20;23.50;;;;;;;1.42;100.00;100565.27;1736841;81;21558;-67
2022/02/25 02:06:46;;;;;;;45.95;21.70;;;;;;;1.42;100.00;100562.67;1784893;80;21056;-68
2022/02/25 02:09:13;;;;;;;47.15;21.93;;;;;;;1.44;100.00;100564.00;1754058;81;21125;-67
2022/02/25 02:11:46;;;;;;;44.58;21.97;;;;;;;1.43;100.00;100563.13;1784766;80;21057;-67
2022/02/25 02:14:17;;;;;;;46.48;23.57;;;;;;;1.42;100.00;100561.38;1754266;81;21105;-68
2022/02/25 02:16:47;;;;;;;42.03;21.60;;;;;;;1.42;100.00;100563.97;1784836;80;21130;-68
2022/02/25 02:19:15;;;;;;;39.83;21.00;;;;;;;1.41;100.00;100548.41;1753643;81;20994;-67
2022/02/25 02:21:46;;;;;;;53.63;24.45;;;;;;;1.43;100.00;100556.64;1784945;80;20994;-68
2022/02/25 02:24:13;;;;;;;;;;;;;;;1.42;100.00;100558.78;1756058;81;21128;-68
2022/02/25 02:26:40;;;;;;;50.60;24.85;;;;;;;1.44;100.00;100552.31;1784706;80;20212;-69
2022/02/25 02:29:07;;;;;;;47.20;23.55;;;;;;;1.41;100.00;100554.47;1754115;81;21098;-69
2022/02/25 02:31:34;;;;;;;42.73;23.22;;;;;;;1.40;100.00;100553.14;1784466;80;21014;-67
2022/02/25 02:34:01;;;;;;;46.60;25.55;;;;;;;1.41;100.00;100558.80;1754048;81;21081;-68
2022/02/25 02:36:27;;;;;;;47.80;25.37;;;;;;;1.39;100.00;100548.39;1783248;80;21010;-69
2022/02/25 02:38:54;;;;;;;44.50;22.40;;;;;;;1.40;100.00;100548.84;1768591;80;21053;-68
2022/02/25 02:41:21;;;;;;;42.13;22.95;;;;;;;1.38;100.00;100545.77;1768776;81;21085;-68
2022/02/25 02:43:49;;;;;;;44.40;23.47;;;;;;;1.37;100.00;100551.84;1768430;81;21066;-68
2022/02/25 02:46:15;;;;;;;48.45;24.05;;;;;;;1.38;100.00;100550.96;1768130;81;21054;-68
2022/02/25 02:48:42;;;;;;;46.48;21.15;;;;;;;1.35;100.00;100544.03;1768083;81;21026;-68
2022/02/25 02:51:10;;;;;;;41.23;22.30;;;;;;;1.36;100.00;100547.08;1768401;81;22184;-68
2022/02/25 02:53:37;;;;;;;51.15;25.17;;;;;;;1.35;100.00;100541.44;1768445;81;21074;-69
2022/02/25 02:56:05;;;;;;;54.00;23.00;;;;;;;1.36;100.00;100538.00;1769943;81;21006;-67
2022/02/25 02:58:32;;;;;;;47.38;22.25;;;;;;;1.35;100.00;100540.14;1769949;81;21096;-68
2022/02/25 03:00:58;;;;;;;43.38;21.10;;;;;;;1.36;100.00;100537.14;1770248;81;22171;-68
2022/02/25 03:03:25;;;;;;;42.90;21.02;;;;;;;1.35;100.00;100537.55;1769879;81;21042;-69
2022/02/25 03:05:52;;;;;;;44.23;22.85;;;;;;;1.35;100.00;100540.58;1770099;81;21136;-69
2022/02/25 03:08:22;;;;;;;44.80;21.90;;;;;;;1.33;100.00;100531.91;1769891;80;21125;-67
2022/02/25 03:10:49;;;;;;;43.38;20.72;;;;;;;1.33;100.00;100531.91;1769708;81;21581;-68
2022/02/25 03:13:16;;;;;;;40.45;20.70;;;;;;;1.31;100.00;100534.51;1770236;81;21002;-68
2022/02/25 03:15:44;;;;;;;37.80;19.15;;;;;;;1.31;100.00;100533.22;1770050;81;21038;-68
2022/02/25 03:18:12;;;;;;;38.67;18.92;;;;;;;1.30;100.00;100526.70;1770169;81;21842;-67
2022/02/25 03:20:40;;;;;;;37.78;18.60;;;;;;;1.24;100.00;100530.11;1770078;80;21011;-68
2022/02/25 03:23:08;;;;;;;37.03;19.27;;;;;;;1.26;100.00;100525.80;1769892;80;21648;-68
2022/02/25 03:25:36;;;;;;;36.08;19.42;;;;;;;1.25;100.00;100534.45;1769801;80;21058;-66
2022/02/25 03:28:04;;;;;;;34.75;17.90;;;;;;;1.24;100.00;100522.32;1770384;81;21021;-69
2022/02/25 03:30:31;;;;;;;39.48;19.23;;;;;;;1.24;100.00;100522.32;1770083;81;21150;-69
2022/02/25 03:32:58;;;;;;;34.50;18.23;;;;;;;1.23;100.00;100514.11;1770518;80;21039;-68
2022/02/25 03:35:24;;;;;;;34.50;17.52;;;;;;;1.22;100.00;100511.06;1769987;81;21030;-68
2022/02/25 03:37:52;;;;;;;33.10;17.95;;;;;;;1.21;100.00;100519.72;1778650;79;21017;-68
2022/02/25 03:40:18;;;;;;;31.07;16.45;;;;;;;1.20;100.00;100512.80;1755375;81;21011;-66
2022/02/25 03:42:45;;;;;;;33.60;17.32;;;;;;;1.20;100.00;100517.99;1786654;80;21139;-68
2022/02/25 03:45:12;;;;;;;35.65;17.65;;;;;;;1.19;100.00;100519.70;1755502;81;21010;-67
2022/02/25 03:47:39;;;;;;;32.88;17.55;;;;;;;1.16;100.00;100516.23;1786122;80;21092;-68
2022/02/25 03:50:06;;;;;;;31.68;16.62;;;;;;;1.16;100.00;100517.52;1755275;81;21481;-68
2022/02/25 03:52:34;;;;;;;30.37;16.35;;;;;;;1.14;100.00;100519.23;1787063;80;21087;-68
2022/02/25 03:55:00;;;;;;;34.88;17.52;;;;;;;1.13;100.00;100517.08;1791970;80;22150;-68
2022/02/25 03:57:27;;;;;;;32.55;17.60;;;;;;;1.13;100.00;100521.38;1793582;80;21096;-68
2022/02/25 03:59:54;;;;;;;31.15;15.98;;;;;;;1.14;100.00;100514.05;1762112;81;21061;-68
2022/02/25 04:02:21;;;;;;;28.10;16.73;;;;;;;1.15;100.00;100514.47;1793770;80;21009;-67
2022/02/25 04:04:48;;;;;;;37.33;18.60;;;;;;;1.15;100.00;100517.96;1762405;81;21117;-68
2022/02/25 04:07:14;;;;;;;35.28;17.75;;;;;;;1.16;100.00;100516.23;1793817;80;22129;-69
2022/02/25 04:09:41;;;;;;;32.15;17.87;;;;;;;1.17;100.00;100508.87;1762011;81;21045;-66
2022/02/25 04:12:09;;;;;;;35.88;17.23;;;;;;;1.15;100.00;100510.17;1793454;80;21068;-67
2022/02/25 04:14:36;;;;;;;33.95;17.82;;;;;;;1.17;100.00;100504.98;1762525;81;21584;-68
2022/02/25 04:17:03;;;;;;;33.05;16.62;;;;;;;1.16;100.00;100498.06;1762063;80;21033;-68
2022/02/25 04:19:30;;;;;;;34.13;17.40;;;;;;;1.15;100.00;100501.50;1762467;81;21616;-68
2022/02/25 04:21:57;;;;;;;32.83;16.17;;;;;;;1.15;100.00;100497.20;1793427;80;21051;-68
2022/02/25 04:24:24;;;;;;;32.93;17.75;;;;;;;1.16;100.00;100500.66;1762128;81;21095;-67
2022/02/25 04:26:51;;;;;;;35.30;16.85;;;;;;;1.15;100.00;100493.72;1793275;80;21075;-67
2022/02/25 04:29:17;;;;;;;36.13;16.67;;;;;;;1.15;100.00;100498.91;1761853;81;21151;-67
2022/02/25 04:31:44;;;;;;;29.05;15.25;;;;;;;1.13;100.00;100497.63;1793434;80;21119;-68
2022/02/25 04:34:11;;;;;;;34.33;17.42;;;;;;;1.15;100.00;100498.91;1762409;81;21671;-68
2022/02/25 04:36:38;;;;;;;29.42;15.90;;;;;;;1.15;100.00;100495.02;1793507;80;22256;-67
2022/02/25 04:39:06;;;;;;;38.13;16.73;;;;;;;1.15;100.00;100494.61;1761905;81;21612;-68
2022/02/25 04:41:35;;;;;;;35.03;17.48;;;;;;;1.13;100.00;100492.84;1793624;80;21072;-68
2022/02/25 04:44:04;;;;;;;33.78;15.18;;;;;;;1.10;100.00;100491.09;1762446;81;21589;-68
2022/02/25 04:46:31;;;;;;;35.43;17.65;;;;;;;1.10;100.00;100490.23;1793541;80;21631;-67
2022/02/25 04:48:59;;;;;;;34.00;16.97;;;;;;;1.08;100.00;100495.83;1762096;80;21065;-69
2022/02/25 04:51:25;;;;;;;33.08;16.10;;;;;;;1.09;100.00;100496.29;1793544;80;21342;-68
2022/02/25 04:53:52;;;;;;;38.35;17.52;;;;;;;1.08;100.00;100495.83;1762378;81;21084;-66
2022/02/25 04:56:20;;;;;;;34.73;16.65;;;;;;;1.07;100.00;100498.00;1793382;80;21484;-68
2022/02/25 04:58:47;;;;;;;33.50;16.82;;;;;;;1.09;100.00;100488.50;1762235;81;21408;-67
2022/02/25 05:01:14;;;;;;;55.38;21.62;;;;;;;1.10;100.00;100488.94;1793353;80;20993;-68
2022/02/25 05:03:40;;;;;;;44.93;19.67;;;;;;;1.12;100.00;100488.52;1793910;80;21051;-68
2022/02/25 05:06:09;;;;;;;38.95;18.37;;;;;;;1.13;100.00;100483.35;1793733;80;21036;-69
2022/02/25 05:08:37;;;;;;;90.72;33.45;;;;;;;1.14;100.00;100481.63;1794058;80;21049;-66
2022/02/25 05:11:03;;;;;;;108.55;44.45;;;;;;;1.16;100.00;100479.91;1793696;80;21005;-68
2022/02/25 05:13:30;;;;;;;137.80;56.83;;;;;;;1.14;100.00;100481.63;1794219;80;21103;-68
2022/02/25 05:21:28;;;;;;;86.30;34.83;;;;;;;1.11;100.00;100481.61;1793738;80;22145;-67
2022/02/25 05:23:54;;;;;;;127.07;51.45;;;;;;;1.10;100.00;100475.53;1794014;80;21041;-68
2022/02/25 05:26:22;;;;;;;67.05;31.52;;;;;;;1.10;100.00;100477.26;1793689;80;21033;-68
2022/02/25 05:28:49;;;;;;;72.50;32.75;;;;;;;1.10;100.00;100469.05;1794152;80;21521;-68
2022/02/25 05:31:16;;;;;;;62.35;30.27;;;;;;;1.11;100.00;100467.34;1793782;80;21073;-68
2022/02/25 05:33:43;;;;;;;83.47;42.13;;;;;;;1.11;100.00;100473.83;1794006;80;21214;-68
2022/02/25 05:36:09;;;;;;;64.10;29.32;;;;;;;1.11;100.00;100472.09;1793610;80;21045;-68
2022/02/25 05:38:36;;;;;;;64.17;27.77;;;;;;;1.13;100.00;100463.90;1795483;79;21580;-69
2022/02/25 05:41:02;;;;;;;54.90;25.50;;;;;;;1.13;100.00;100462.59;1796733;79;21104;-68
2022/02/25 05:43:30;;;;;;;71.40;32.55;;;;;;;1.13;100.00;100461.70;1796892;79;21012;-68
2022/02/25 05:45:56;;;;;;;64.62;26.90;;;;;;;1.13;100.00;100457.81;1796725;79;22118;-68
2022/02/25 05:48:24;;;;;;;60.48;26.50;;;;;;;1.13;100.00;100461.70;1796968;79;21049;-70
2022/02/25 05:50:51;;;;;;;78.97;30.32;;;;;;;1.15;100.00;100454.80;1796639;79;21119;-69
2022/02/25 05:53:17;;;;;;;110.30;39.48;;;;;;;1.18;100.00;100454.84;1794598;79;21056;-68
2022/02/25 05:55:44;;;;;;;116.20;43.28;;;;;;;1.19;100.00;100455.27;1765034;81;21049;-68
2022/02/25 05:58:11;;;;;;;93.90;33.73;;;;;;;1.21;100.00;100454.86;1765530;81;22245;-69
2022/02/25 06:00:40;;;;;;;87.25;31.68;;;;;;;1.23;100.00;100454.00;1773675;79;21111;-68
2022/02/25 06:03:09;;;;;;;65.35;26.77;;;;;;;1.24;100.00;100460.05;1797049;79;21052;-68
2022/02/25 06:05:36;;;;;;;54.33;26.00;;;;;;;1.25;100.00;100457.91;1796842;79;21108;-69
2022/02/25 06:08:03;;;;;;;48.70;22.77;;;;;;;1.29;100.00;100458.38;1796928;79;21438;-69
2022/02/25 06:10:30;;;;;;;77.00;30.05;;;;;;;1.31;100.00;100457.96;1796829;79;22088;-66
2022/02/25 06:12:56;;;;;;;187.70;57.23;;;;;;;1.33;100.00;100460.11;1797066;79;22026;-69
2022/02/25 06:15:23;;;;;;;64.00;25.43;;;;;;;1.36;100.00;100460.58;1796583;79;21019;-69
2022/02/25 06:17:50;;;;;;;44.18;22.95;;;;;;;1.37;100.00;100464.47;1796576;79;21623;-68
2022/02/25 06:20:19;;;;;;;41.00;19.42;;;;;;;1.40;100.00;100464.50;1796723;79;21104;-68
2022/02/25 06:22:46;;;;;;;40.43;20.12;;;;;;;1.39;100.00;100465.34;1797074;79;21771;-69
2022/02/25 06:25:13;;;;;;;37.67;19.87;;;;;;;1.33;100.00;100465.30;1796569;79;21559;-69
2022/02/25 06:27:41;;;;;;;36.73;18.30;;;;;;;1.30;100.00;100462.70;1796676;79;21056;-69
2022/02/25 06:30:09;;;;;;;40.98;21.30;;;;;;;1.29;100.00;100464.86;1797002;79;21099;-69
2022/02/25 06:32:37;;;;;;;39.53;20.65;;;;;;;1.31;100.00;100472.64;1796646;79;21511;-68
2022/02/25 06:35:06;;;;;;;41.02;20.68;;;;;;;1.33;100.00;100471.78;1796697;79;21930;-68
2022/02/25 06:37:33;;;;;;;42.30;20.32;;;;;;;1.33;100.00;100466.59;1796583;79;21096;-68
2022/02/25 06:39:59;;;;;;;41.58;19.52;;;;;;;1.31;100.00;100464.45;1796537;79;21051;-69
2022/02/25 06:42:27;;;;;;;40.08;20.25;;;;;;;1.38;100.00;100471.41;1796658;79;21103;-69
2022/02/25 06:44:54;;;;;;;49.10;20.35;;;;;;;1.40;100.00;100469.70;1797112;79;21524;-68
2022/02/25 06:47:21;;;;;;;37.83;19.10;;;;;;;1.43;100.00;100465.81;1796685;79;21811;-69
2022/02/25 06:52:58;;;;;;;46.53;21.40;;;;;;;1.51;100.00;100460.65;1795471;79;22643;-69
2022/02/25 06:55:25;;;;;;;44.00;21.65;;;;;;;1.52;100.00;100457.61;1750301;81;21365;-69
2022/02/25 06:57:51;;;;;;;42.67;20.97;;;;;;;1.57;100.00;100455.94;1749984;82;21095;-70
2022/02/25 07:00:21;;;;;;;47.93;20.92;;;;;;;1.62;100.00;100451.63;1750019;82;21071;-70
2022/02/25 07:02:46;;;;;;;34.70;18.90;;;;;;;1.68;100.00;100449.06;1750064;81;21083;-70
2022/02/25 07:05:12;;;;;;;40.60;19.07;;;;;;;1.75;100.00;100453.42;1750209;82;20957;-68
2022/02/25 07:07:39;;;;;;;35.13;18.85;;;;;;;1.83;100.00;100450.41;1750290;82;21151;-67
2022/02/25 07:10:08;;;;;;;70.85;40.92;;;;;;;1.91;100.00;100450.86;1749969;82;21149;-67
2022/02/25 07:12:34;;;;;;;46.92;22.62;;;;;;;2.10;100.00;100447.47;1750181;82;21076;-68
2022/02/25 07:15:04;;;;;;;51.90;23.12;;;;;;;2.10;100.00;100447.47;1749914;82;21541;-68
2022/02/25 07:17:31;;;;;;;38.33;20.17;;;;;;;2.21;100.00;100448.37;1749912;82;21052;-70
2022/02/25 07:19:57;;;;;;;36.53;18.87;;;;;;;2.38;100.00;100439.73;1740074;82;21092;-68
2022/02/25 07:22:24;;;;;;;37.80;18.70;;;;;;;2.47;100.00;100442.34;1720010;83;21589;-68
2022/02/25 07:24:52;;;;;;;35.28;18.70;;;;;;;2.56;100.00;100444.09;1719973;83;21116;-69
2022/02/25 07:27:19;;;;;;;33.05;17.70;;;;;;;2.67;100.00;100440.62;1720031;83;21077;-67
2022/02/25 07:29:45;;;;;;;41.08;19.23;;;;;;;2.80;100.00;100434.96;1720305;83;21675;-69
2022/02/25 07:32:12;;;;;;;36.08;17.32;;;;;;;2.92;100.00;100435.39;1720113;83;21569;-68
2022/02/25 07:34:39;;;;;;;36.20;17.48;;;;;;;2.99;98.13;100426.73;1720118;83;22003;-69
2022/02/25 07:37:06;;;;;;;36.88;17.27;;;;;;;3.00;98.11;100426.30;1720147;83;21139;-69
2022/02/25 07:39:33;;;;;;;34.60;16.20;;;;;;;3.08;98.38;100424.53;1720038;83;21060;-68
2022/02/25 07:42:00;;;;;;;34.10;16.20;;;;;;;3.22;99.08;100423.20;1720447;83;21217;-68
2022/02/25 07:44:27;;;;;;;35.17;16.93;;;;;;;3.36;97.85;100417.55;1720114;83;21107;-67
2022/02/25 07:46:55;;;;;;;35.95;16.40;;;;;;;3.50;96.64;100424.01;1720001;83;22158;-68
2022/02/25 07:49:22;;;;;;;28.05;14.58;;;;;;;3.60;94.86;100422.23;1720064;83;21668;-68
2022/02/25 07:51:50;;;;;;;28.95;15.03;;;;;;;3.67;90.89;100418.28;1715107;83;21108;-67
2022/02/25 07:54:20;;;;;;;31.70;13.85;;;;;;;3.77;91.71;100411.28;1710081;83;21594;-69
2022/02/25 07:56:47;;;;;;;32.08;15.63;;;;;;;3.85;88.78;100419.95;1713452;83;21050;-69
2022/02/25 07:59:14;;;;;;;32.67;14.83;;;;;;;3.98;88.94;100417.71;1713400;83;21512;-68
2022/02/25 08:01:42;;;;;;;40.98;16.87;;;;;;;4.12;88.93;100415.47;1713427;83;21060;-69
2022/02/25 08:04:11;;;;;;;30.95;15.95;;;;;;;4.30;86.65;100411.86;1712985;82;21093;-69
2022/02/25 08:06:38;;;;;;;38.85;16.60;;;;;;;4.47;86.77;100403.93;1712832;83;21053;-69
2022/02/25 08:09:04;;;;;;;32.67;15.40;;;;;;;4.63;86.21;100402.92;1712875;83;21053;-70
2022/02/25 08:11:31;;;;;;;33.80;15.83;;;;;;;4.74;83.08;100405.01;1712676;83;21872;-69
2022/02/25 08:13:57;;;;;;;32.42;16.60;;;;;;;4.90;85.38;100399.63;1712619;83;21085;-71
2022/02/25 08:16:24;;;;;;;33.10;15.45;;;;;;;5.02;82.53;100396.92;1712604;82;21018;-68
2022/02/25 08:18:50;;;;;;;25.88;13.93;;;;;;;5.01;82.67;100390.80;1712756;82;22120;-70
2022/02/25 08:21:17;;;;;;;34.13;17.20;;;;;;;5.08;83.84;100390.30;1712311;82;21133;-69
2022/02/25 08:23:44;;;;;;;33.85;18.20;;;;;;;5.27;83.67;100385.78;1712522;83;21069;-68
2022/02/25 08:26:10;;;;;;;36.17;17.67;;;;;;;5.46;84.29;100392.95;1712583;83;21002;-70
2022/02/25 08:28:37;;;;;;;28.77;16.40;;;;;;;5.56;83.48;100381.94;1712530;83;21078;-69
2022/02/25 08:31:04;;;;;;;32.48;16.75;;;;;;;5.72;82.80;100378.70;1712937;82;21055;-69
2022/02/25 08:33:33;;;;;;;34.53;17.85;;;;;;;5.91;82.48;100377.55;1712810;83;21041;-68
2022/02/25 08:35:59;;;;;;;35.17;18.42;;;;;;;6.12;80.79;100378.16;1712585;83;21605;-68
2022/02/25 08:38:27;;;;;;;32.20;16.23;;;;;;;6.35;81.06;100376.08;1712545;83;21085;-70
2022/02/25 08:40:54;;;;;;;29.32;17.17;;;;;;;6.41;79.36;100373.80;1712608;83;21092;-69
2022/02/25 08:43:21;;;;;;;28.40;15.55;;;;;;;6.62;77.37;100368.66;1712652;83;21042;-69
2022/02/25 08:45:47;;;;;;;30.97;18.00;;;;;;;6.91;79.12;100358.53;1712711;82;21010;-68
2022/02/25 08:48:14;;;;;;;34.55;16.87;;;;;;;7.32;76.27;100356.88;1712684;83;21525;-68
2022/02/25 08:50:42;;;;;;;25.97;15.03;;;;;;;7.80;76.20;100349.34;1712483;82;21474;-69
2022/02/25 08:53:08;;;;;;;26.12;15.83;;;;;;;8.45;69.55;100347.86;1722809;82;21554;-69
2022/02/25 08:55:35;;;;;;;29.07;16.25;;;;;;;9.17;66.60;100344.64;1725704;82;21585;-68
2022/02/25 08:58:02;;;;;;;22.77;14.55;;;;;;;9.93;64.74;100336.27;1725814;83;21121;-70
2022/02/25 09:00:28;;;;;;;29.70;16.57;;;;;;;10.54;58.28;100340.52;1725521;83;21401;-68
2022/02/25 09:02:55;;;;;;;34.90;22.07;;;;;;;10.63;56.51;100334.94;1725960;83;21139;-69
2022/02/25 09:05:22;;;;;;;27.30;16.77;;;;;;;10.36;56.74;100334.09;1725287;83;21620;-68
2022/02/25 09:07:50;;;;;;;27.75;16.73;;;;;;;10.04;56.08;100342.05;1725475;82;21089;-69
2022/02/25 09:10:17;;;;;;;25.23;15.60;;;;;;;9.48;57.23;100327.98;1725659;82;21061;-69
2022/02/25 09:12:45;;;;;;;27.60;16.77;;;;;;;8.92;58.47;100333.48;1725830;83;21583;-70
2022/02/25 09:15:14;;;;;;;31.57;16.70;;;;;;;8.57;58.57;100331.34;1725588;83;21023;-69
2022/02/25 09:17:41;;;;;;;28.70;17.70;;;;;;;8.25;58.50;100336.50;1725924;83;21194;-69
2022/02/25 09:20:09;;;;;;;32.65;19.05;;;;;;;8.00;59.46;100330.51;1709063;83;21057;-68
2022/02/25 09:22:37;;;;;;;32.60;18.07;;;;;;;7.85;60.46;100333.05;1725812;83;21072;-68
2022/02/25 09:25:05;;;;;;;32.10;17.12;;;;;;;7.63;60.39;100332.64;1725617;83;21129;-69
2022/02/25 09:27:32;;;;;;;31.15;16.40;;;;;;;7.49;60.76;100329.47;1725864;82;21041;-70
2022/02/25 09:30:00;;;;;;;28.98;17.00;;;;;;;7.33;61.59;100331.54;1725540;83;21049;-68
2022/02/25 09:32:27;;;;;;;30.95;16.42;;;;;;;7.28;60.68;100331.63;1725924;83;21599;-69
2022/02/25 09:34:53;;;;;;;24.87;14.18;;;;;;;7.15;58.96;100320.98;1725547;83;21083;-69
2022/02/25 09:37:20;;;;;;;27.50;14.55;;;;;;;7.03;58.53;100318.61;1725761;83;21650;-68
2022/02/25 09:39:47;;;;;;;25.02;14.93;;;;;;;6.79;57.38;100322.13;1725901;83;21049;-67
2022/02/25 09:42:14;;;;;;;26.77;15.58;;;;;;;6.62;58.75;100318.93;1725559;83;21564;-68
2022/02/25 09:44:43;;;;;;;29.02;14.83;;;;;;;6.55;59.10;100322.55;1725899;83;21096;-68
2022/02/25 09:47:10;;;;;;;24.18;14.93;;;;;;;6.43;58.25;100316.63;1725504;83;21048;-70
2022/02/25 09:49:37;;;;;;;30.00;16.82;;;;;;;6.43;60.35;100310.09;1725517;83;21657;-69
2022/02/25 09:52:03;;;;;;;27.37;14.93;;;;;;;6.58;59.88;100301.13;1722788;83;21541;-68
2022/02/25 09:54:30;;;;;;;25.77;14.85;;;;;;;6.76;60.31;100297.74;1712358;83;21090;-70
2022/02/25 09:56:58;;;;;;;31.17;16.77;;;;;;;7.12;58.89;100295.72;1712293;83;21057;-69
2022/02/25 09:59:25;;;;;;;37.50;20.20;;;;;;;7.65;56.74;100288.92;1712488;83;21045;-69
2022/02/25 10:01:51;;;;;;;35.10;20.02;;;;;;;7.73;57.60;100281.76;1712372;83;21147;-70
2022/02/25 10:04:22;;;;;;;38.17;18.85;;;;;;;7.40;58.50;100282.50;1712333;83;21478;-69
2022/02/25 10:06:49;;;;;;;39.65;18.82;;;;;;;7.37;59.10;100278.64;1712481;83;21018;-69
2022/02/25 10:09:34;;;;;;;38.95;17.40;;;;;;;7.34;59.66;100272.57;1712356;83;21005;-68
2022/02/25 10:12:10;;;;;;;32.35;16.87;;;;;;;7.25;58.96;100273.22;1712271;83;21044;-70
2022/02/25 10:14:41;;;;;;;26.12;14.65;;;;;;;7.02;58.72;100270.63;1712336;83;21144;-69
2022/02/25 10:17:24;;;;;;;27.00;13.65;;;;;;;6.93;60.58;100262.50;1712129;83;26588;-69
2022/02/25 10:20:15;;;;;;;29.00;17.10;;;;;;;7.04;58.68;100264.02;1712177;82;21062;-68
2022/02/25 10:22:45;;;;;;;26.42;14.25;;;;;;;7.03;58.83;100257.08;1644116;87;21150;-69
2022/02/25 10:25:11;;;;;;;27.25;15.60;;;;;;;6.93;58.32;100246.79;1664360;86;21545;-69
2022/02/25 10:27:44;;;;;;;26.75;15.20;;;;;;;6.79;58.53;100244.90;1664605;86;22011;-69
2022/02/25 10:30:16;;;;;;;27.42;15.23;;;;;;;6.83;60.05;100247.88;1674740;85;21119;-69
2022/02/25 10:32:49;;;;;;;25.70;14.50;;;;;;;6.82;59.93;100242.21;1674507;85;21075;-69
2022/02/25 10:35:36;;;;;;;22.95;13.93;;;;;;;7.05;58.74;100240.89;1673942;85;21417;-68
2022/02/25 10:38:15;;;;;;;30.75;14.23;;;;;;;7.23;59.90;100226.55;1674404;85;21106;-69
2022/02/25 10:40:48;;;;;;;24.40;13.93;;;;;;;7.26;57.83;100228.64;1674598;85;21112;-70
2022/02/25 10:43:25;;;;;;;24.43;14.07;;;;;;;7.27;56.90;100227.76;1674546;85;21099;-69
2022/02/25 10:45:58;;;;;;;26.42;14.70;;;;;;;7.14;57.52;100234.15;1674645;85;21678;-69
2022/02/25 10:48:31;;;;;;;27.75;15.28;;;;;;;6.79;58.09;100226.58;1674703;85;21099;-69
2022/02/25 10:51:06;;;;;;;27.13;15.23;;;;;;;6.60;58.33;100227.39;1691640;84;21094;-69
2022/02/25 10:53:50;;;;;;;26.50;15.90;;;;;;;6.50;60.48;100222.75;1674049;85;21178;-68
2022/02/25 10:56:20;;;;;;;29.50;17.12;;;;;;;6.48;59.85;100219.75;1671498;85;21052;-69
2022/02/25 10:58:52;;;;;;;26.62;14.78;;;;;;;6.50;60.71;100213.59;1671299;85;21653;-69
2022/02/25 11:01:26;;;;;;;32.58;18.07;;;;;;;6.57;60.64;100208.26;1671410;85;21060;-69
2022/02/25 11:04:04;;;;;;;27.07;16.17;;;;;;;6.63;59.92;100208.15;1658093;86;21069;-70
2022/02/25 11:06:31;;;;;;;27.22;15.32;;;;;;;6.86;60.62;100200.69;1671644;85;21804;-68
2022/02/25 11:09:00;;;;;;;27.55;15.28;;;;;;;7.29;59.52;100186.67;1671047;85;21120;-69
2022/02/25 11:11:27;;;;;;;23.77;14.43;;;;;;;7.72;58.14;100189.58;1658975;86;21024;-69
2022/02/25 11:13:55;;;;;;;26.65;15.20;;;;;;;7.93;55.11;100189.48;1671147;85;21045;-68
2022/02/25 11:16:22;;;;;;;27.75;15.65;;;;;;;7.84;54.75;100184.93;1642426;85;21037;-68
2022/02/25 11:18:49;;;;;;;29.92;17.07;;;;;;;7.86;55.13;100177.89;1671252;85;22153;-69
2022/02/25 11:21:16;;;;;;;25.57;15.98;;;;;;;8.17;55.01;100166.17;1667742;85;21504;-69
2022/02/25 11:23:44;;;;;;;26.48;15.58;;;;;;;8.45;53.74;100163.69;1663320;86;21105;-70